sensor_id;sensor_type;location;lat;lon;timestamp;P1;durP1;ratioP1;P2;durP2;ratioP2
38851;SDS011;24605;50.092;9.182;2023-06-26T00:00:59;6.55;;;4.43;;
38851;SDS011;24605;50.092;9.182;2023-06-26T00:03:26;7.70;;;4.38;;
38851;SDS011;24605;50.092;9.182;2023-06-26T00:05:54;6.65;;;4.43;;
38851;SDS011;24605;50.092;9.182;2023-06-26T00:08:25;6.78;;;4.47;;
38851;SDS011;24605;50.092;9.182;2023-06-26T00:10:53;7.55;;;4.78;;
38851;SDS011;24605;50.092;9.182;2023-06-26T00:13:20;5.97;;;4.40;;
38851;SDS011;24605;50.092;9.182;2023-06-26T00:15:46;6.65;;;4.28;;
38851;SDS011;24605;50.092;9.182;2023-06-26T00:18:13;6.57;;;4.32;;
38851;SDS011;24605;50.092;9.182;2023-06-26T00:20:39;6.85;;;4.43;;
38851;SDS011;24605;50.092;9.182;2023-06-26T00:23:06;8.07;;;3.92;;
38851;SDS011;24605;50.092;9.182;2023-06-26T00:25:32;6.65;;;4.60;;
38851;SDS011;24605;50.092;9.182;2023-06-26T00:28:00;7.70;;;4.63;;
38851;SDS011;24605;50.092;9.182;2023-06-26T00:30:26;6.90;;;4.80;;
38851;SDS011;24605;50.092;9.182;2023-06-26T00:32:53;10.60;;;4.25;;
38851;SDS011;24605;50.092;9.182;2023-06-26T00:35:19;7.20;;;4.55;;
38851;SDS011;24605;50.092;9.182;2023-06-26T00:37:46;6.78;;;4.38;;
38851;SDS011;24605;50.092;9.182;2023-06-26T00:40:12;6.50;;;4.30;;
38851;SDS011;24605;50.092;9.182;2023-06-26T00:42:39;5.75;;;4.13;;
38851;SDS011;24605;50.092;9.182;2023-06-26T00:45:07;7.03;;;4.10;;
38851;SDS011;24605;50.092;9.182;2023-06-26T00:47:34;5.97;;;4.20;;
38851;SDS011;24605;50.092;9.182;2023-06-26T00:50:00;6.80;;;4.43;;
38851;SDS011;24605;50.092;9.182;2023-06-26T00:52:27;6.50;;;4.57;;
38851;SDS011;24605;50.092;9.182;2023-06-26T00:54:54;7.03;;;4.45;;
38851;SDS011;24605;50.092;9.182;2023-06-26T00:57:21;8.40;;;5.00;;
38851;SDS011;24605;50.092;9.182;2023-06-26T00:59:49;6.97;;;4.40;;
38851;SDS011;24605;50.092;9.182;2023-06-26T01:02:17;6.60;;;4.50;;
38851;SDS011;24605;50.092;9.182;2023-06-26T01:04:45;7.28;;;4.10;;
38851;SDS011;24605;50.092;9.182;2023-06-26T01:07:12;5.55;;;3.80;;
38851;SDS011;24605;50.092;9.182;2023-06-26T01:09:40;5.85;;;4.15;;
38851;SDS011;24605;50.092;9.182;2023-06-26T01:12:07;7.30;;;4.65;;
38851;SDS011;24605;50.092;9.182;2023-06-26T01:14:34;7.03;;;4.57;;
38851;SDS011;24605;50.092;9.182;2023-06-26T01:17:01;6.45;;;4.75;;
38851;SDS011;24605;50.092;9.182;2023-06-26T01:19:30;7.32;;;5.22;;
38851;SDS011;24605;50.092;9.182;2023-06-26T01:21:59;6.70;;;4.70;;
38851;SDS011;24605;50.092;9.182;2023-06-26T01:24:39;7.45;;;5.00;;
38851;SDS011;24605;50.092;9.182;2023-06-26T01:27:12;7.53;;;4.38;;
38851;SDS011;24605;50.092;9.182;2023-06-26T01:29:40;7.43;;;4.00;;
38851;SDS011;24605;50.092;9.182;2023-06-26T01:32:08;6.68;;;4.88;;
38851;SDS011;24605;50.092;9.182;2023-06-26T01:34:34;6.95;;;4.38;;
38851;SDS011;24605;50.092;9.182;2023-06-26T01:37:01;6.63;;;4.10;;
38851;SDS011;24605;50.092;9.182;2023-06-26T01:39:27;6.18;;;4.53;;
38851;SDS011;24605;50.092;9.182;2023-06-26T01:41:54;12.52;;;4.50;;
38851;SDS011;24605;50.092;9.182;2023-06-26T01:44:25;6.40;;;4.32;;
38851;SDS011;24605;50.092;9.182;2023-06-26T01:46:59;6.68;;;4.75;;
38851;SDS011;24605;50.092;9.182;2023-06-26T01:49:33;6.30;;;4.57;;
38851;SDS011;24605;50.092;9.182;2023-06-26T01:52:09;7.05;;;4.63;;
38851;SDS011;24605;50.092;9.182;2023-06-26T01:54:42;7.22;;;4.30;;
38851;SDS011;24605;50.092;9.182;2023-06-26T01:57:15;7.10;;;4.50;;
38851;SDS011;24605;50.092;9.182;2023-06-26T01:59:46;9.10;;;4.88;;
38851;SDS011;24605;50.092;9.182;2023-06-26T02:02:13;6.43;;;4.45;;
38851;SDS011;24605;50.092;9.182;2023-06-26T02:04:40;7.35;;;4.40;;
38851;SDS011;24605;50.092;9.182;2023-06-26T02:07:07;6.93;;;4.47;;
38851;SDS011;24605;50.092;9.182;2023-06-26T02:09:34;6.82;;;4.75;;
38851;SDS011;24605;50.092;9.182;2023-06-26T02:12:01;6.63;;;4.55;;
38851;SDS011;24605;50.092;9.182;2023-06-26T02:14:27;6.15;;;4.30;;
38851;SDS011;24605;50.092;9.182;2023-06-26T02:16:55;6.15;;;4.50;;
38851;SDS011;24605;50.092;9.182;2023-06-26T02:19:22;5.80;;;4.00;;
38851;SDS011;24605;50.092;9.182;2023-06-26T02:21:48;6.75;;;4.65;;
38851;SDS011;24605;50.092;9.182;2023-06-26T02:24:15;9.25;;;4.90;;
38851;SDS011;24605;50.092;9.182;2023-06-26T02:26:42;6.97;;;4.47;;
38851;SDS011;24605;50.092;9.182;2023-06-26T02:29:08;6.50;;;4.40;;
38851;SDS011;24605;50.092;9.182;2023-06-26T02:31:35;7.90;;;5.10;;
38851;SDS011;24605;50.092;9.182;2023-06-26T02:34:02;7.93;;;4.88;;
38851;SDS011;24605;50.092;9.182;2023-06-26T02:36:29;6.63;;;4.55;;
38851;SDS011;24605;50.092;9.182;2023-06-26T02:38:56;8.65;;;4.63;;
38851;SDS011;24605;50.092;9.182;2023-06-26T02:41:22;6.95;;;4.72;;
38851;SDS011;24605;50.092;9.182;2023-06-26T02:43:48;6.65;;;4.40;;
38851;SDS011;24605;50.092;9.182;2023-06-26T02:46:15;6.05;;;4.40;;
38851;SDS011;24605;50.092;9.182;2023-06-26T02:48:41;6.95;;;4.68;;
38851;SDS011;24605;50.092;9.182;2023-06-26T02:51:09;6.30;;;4.75;;
38851;SDS011;24605;50.092;9.182;2023-06-26T02:53:35;6.80;;;4.53;;
38851;SDS011;24605;50.092;9.182;2023-06-26T02:56:02;9.45;;;4.85;;
38851;SDS011;24605;50.092;9.182;2023-06-26T02:58:28;7.38;;;4.82;;
38851;SDS011;24605;50.092;9.182;2023-06-26T03:00:55;6.78;;;4.70;;
38851;SDS011;24605;50.092;9.182;2023-06-26T03:03:21;8.30;;;4.63;;
38851;SDS011;24605;50.092;9.182;2023-06-26T03:05:48;6.97;;;4.68;;
38851;SDS011;24605;50.092;9.182;2023-06-26T03:08:16;7.93;;;5.20;;
38851;SDS011;24605;50.092;9.182;2023-06-26T03:10:42;6.72;;;4.75;;
38851;SDS011;24605;50.092;9.182;2023-06-26T03:13:09;7.40;;;4.88;;
38851;SDS011;24605;50.092;9.182;2023-06-26T03:15:35;7.78;;;4.50;;
38851;SDS011;24605;50.092;9.182;2023-06-26T03:18:02;6.97;;;4.40;;
38851;SDS011;24605;50.092;9.182;2023-06-26T03:20:28;7.25;;;4.85;;
38851;SDS011;24605;50.092;9.182;2023-06-26T03:22:55;9.75;;;4.82;;
38851;SDS011;24605;50.092;9.182;2023-06-26T03:25:22;8.52;;;4.55;;
38851;SDS011;24605;50.092;9.182;2023-06-26T03:27:49;7.05;;;4.95;;
38851;SDS011;24605;50.092;9.182;2023-06-26T03:30:15;9.52;;;4.95;;
38851;SDS011;24605;50.092;9.182;2023-06-26T03:32:42;7.35;;;4.78;;
38851;SDS011;24605;50.092;9.182;2023-06-26T03:35:08;7.53;;;4.80;;
38851;SDS011;24605;50.092;9.182;2023-06-26T03:37:35;6.82;;;4.70;;
38851;SDS011;24605;50.092;9.182;2023-06-26T03:40:01;6.95;;;4.80;;
38851;SDS011;24605;50.092;9.182;2023-06-26T03:42:31;8.13;;;4.80;;
38851;SDS011;24605;50.092;9.182;2023-06-26T03:44:57;6.25;;;4.25;;
38851;SDS011;24605;50.092;9.182;2023-06-26T03:47:23;6.65;;;4.57;;
38851;SDS011;24605;50.092;9.182;2023-06-26T03:49:50;6.88;;;4.85;;
38851;SDS011;24605;50.092;9.182;2023-06-26T03:52:16;6.20;;;4.15;;
38851;SDS011;24605;50.092;9.182;2023-06-26T03:54:43;6.63;;;4.47;;
38851;SDS011;24605;50.092;9.182;2023-06-26T03:57:09;5.90;;;4.35;;
38851;SDS011;24605;50.092;9.182;2023-06-26T03:59:37;6.97;;;4.40;;
38851;SDS011;24605;50.092;9.182;2023-06-26T04:02:03;8.18;;;4.90;;
38851;SDS011;24605;50.092;9.182;2023-06-26T04:04:30;7.22;;;4.63;;
38851;SDS011;24605;50.092;9.182;2023-06-26T04:06:56;6.85;;;4.47;;
38851;SDS011;24605;50.092;9.182;2023-06-26T04:09:24;9.15;;;5.03;;
38851;SDS011;24605;50.092;9.182;2023-06-26T04:11:50;7.78;;;4.75;;
38851;SDS011;24605;50.092;9.182;2023-06-26T04:14:17;6.22;;;4.68;;
38851;SDS011;24605;50.092;9.182;2023-06-26T04:16:45;7.40;;;5.00;;
38851;SDS011;24605;50.092;9.182;2023-06-26T04:19:11;7.65;;;5.05;;
38851;SDS011;24605;50.092;9.182;2023-06-26T04:21:38;6.47;;;4.65;;
38851;SDS011;24605;50.092;9.182;2023-06-26T04:24:05;6.78;;;4.53;;
38851;SDS011;24605;50.092;9.182;2023-06-26T04:26:31;7.55;;;5.10;;
38851;SDS011;24605;50.092;9.182;2023-06-26T04:28:58;8.77;;;5.20;;
38851;SDS011;24605;50.092;9.182;2023-06-26T04:31:24;7.05;;;4.95;;
38851;SDS011;24605;50.092;9.182;2023-06-26T04:33:52;6.60;;;4.68;;
38851;SDS011;24605;50.092;9.182;2023-06-26T04:36:20;8.02;;;4.72;;
38851;SDS011;24605;50.092;9.182;2023-06-26T04:38:46;6.35;;;4.68;;
38851;SDS011;24605;50.092;9.182;2023-06-26T04:41:14;7.22;;;4.97;;
38851;SDS011;24605;50.092;9.182;2023-06-26T04:43:40;6.43;;;4.78;;
38851;SDS011;24605;50.092;9.182;2023-06-26T04:46:07;7.20;;;4.82;;
38851;SDS011;24605;50.092;9.182;2023-06-26T04:48:33;7.38;;;5.28;;
38851;SDS011;24605;50.092;9.182;2023-06-26T04:51:01;6.57;;;4.80;;
38851;SDS011;24605;50.092;9.182;2023-06-26T04:53:27;7.57;;;4.50;;
38851;SDS011;24605;50.092;9.182;2023-06-26T04:55:54;7.43;;;5.10;;
38851;SDS011;24605;50.092;9.182;2023-06-26T04:58:20;7.32;;;4.60;;
38851;SDS011;24605;50.092;9.182;2023-06-26T05:00:47;6.95;;;5.05;;
38851;SDS011;24605;50.092;9.182;2023-06-26T05:03:14;7.95;;;5.07;;
38851;SDS011;24605;50.092;9.182;2023-06-26T05:05:44;8.40;;;5.40;;
38851;SDS011;24605;50.092;9.182;2023-06-26T05:08:15;7.57;;;5.63;;
38851;SDS011;24605;50.092;9.182;2023-06-26T05:10:42;6.97;;;4.90;;
38851;SDS011;24605;50.092;9.182;2023-06-26T05:13:09;8.98;;;5.13;;
38851;SDS011;24605;50.092;9.182;2023-06-26T05:15:35;8.68;;;4.72;;
38851;SDS011;24605;50.092;9.182;2023-06-26T05:18:02;6.72;;;5.00;;
38851;SDS011;24605;50.092;9.182;2023-06-26T05:20:29;7.47;;;5.00;;
38851;SDS011;24605;50.092;9.182;2023-06-26T05:22:55;7.18;;;4.95;;
38851;SDS011;24605;50.092;9.182;2023-06-26T05:25:23;6.55;;;4.57;;
38851;SDS011;24605;50.092;9.182;2023-06-26T05:27:52;7.95;;;4.60;;
38851;SDS011;24605;50.092;9.182;2023-06-26T05:30:19;7.38;;;4.78;;
38851;SDS011;24605;50.092;9.182;2023-06-26T05:32:46;6.45;;;4.38;;
38851;SDS011;24605;50.092;9.182;2023-06-26T05:35:13;7.57;;;5.10;;
38851;SDS011;24605;50.092;9.182;2023-06-26T05:37:41;7.82;;;5.10;;
38851;SDS011;24605;50.092;9.182;2023-06-26T05:40:08;6.93;;;4.45;;
38851;SDS011;24605;50.092;9.182;2023-06-26T05:42:37;7.28;;;4.72;;
38851;SDS011;24605;50.092;9.182;2023-06-26T05:45:04;6.53;;;4.50;;
38851;SDS011;24605;50.092;9.182;2023-06-26T05:47:31;6.68;;;4.70;;
38851;SDS011;24605;50.092;9.182;2023-06-26T05:49:58;8.40;;;4.70;;
38851;SDS011;24605;50.092;9.182;2023-06-26T05:52:25;6.78;;;4.75;;
38851;SDS011;24605;50.092;9.182;2023-06-26T05:54:52;6.15;;;4.53;;
38851;SDS011;24605;50.092;9.182;2023-06-26T05:57:19;6.75;;;4.07;;
38851;SDS011;24605;50.092;9.182;2023-06-26T05:59:48;6.80;;;4.80;;
38851;SDS011;24605;50.092;9.182;2023-06-26T06:02:14;8.82;;;4.97;;
38851;SDS011;24605;50.092;9.182;2023-06-26T06:04:41;7.15;;;4.63;;
38851;SDS011;24605;50.092;9.182;2023-06-26T06:07:08;7.13;;;4.97;;
38851;SDS011;24605;50.092;9.182;2023-06-26T06:09:34;7.80;;;5.25;;
38851;SDS011;24605;50.092;9.182;2023-06-26T06:12:01;6.50;;;4.78;;
38851;SDS011;24605;50.092;9.182;2023-06-26T06:14:28;6.90;;;4.72;;
38851;SDS011;24605;50.092;9.182;2023-06-26T06:16:56;6.60;;;4.70;;
38851;SDS011;24605;50.092;9.182;2023-06-26T06:19:23;8.73;;;5.00;;
38851;SDS011;24605;50.092;9.182;2023-06-26T06:21:49;6.85;;;4.85;;
38851;SDS011;24605;50.092;9.182;2023-06-26T06:24:16;6.50;;;5.00;;
38851;SDS011;24605;50.092;9.182;2023-06-26T06:26:42;7.32;;;4.85;;
38851;SDS011;24605;50.092;9.182;2023-06-26T06:29:09;9.05;;;5.55;;
38851;SDS011;24605;50.092;9.182;2023-06-26T06:31:35;8.02;;;5.25;;
38851;SDS011;24605;50.092;9.182;2023-06-26T06:34:03;7.13;;;4.85;;
38851;SDS011;24605;50.092;9.182;2023-06-26T06:36:30;7.25;;;4.78;;
38851;SDS011;24605;50.092;9.182;2023-06-26T06:38:56;7.43;;;4.60;;
38851;SDS011;24605;50.092;9.182;2023-06-26T06:41:22;7.50;;;5.05;;
38851;SDS011;24605;50.092;9.182;2023-06-26T06:43:49;8.73;;;5.25;;
38851;SDS011;24605;50.092;9.182;2023-06-26T06:46:15;8.00;;;5.13;;
38851;SDS011;24605;50.092;9.182;2023-06-26T06:48:42;7.50;;;5.00;;
38851;SDS011;24605;50.092;9.182;2023-06-26T06:51:10;6.47;;;4.97;;
38851;SDS011;24605;50.092;9.182;2023-06-26T06:53:36;9.32;;;5.35;;
38851;SDS011;24605;50.092;9.182;2023-06-26T06:56:03;7.50;;;5.43;;
38851;SDS011;24605;50.092;9.182;2023-06-26T06:58:29;7.13;;;5.07;;
38851;SDS011;24605;50.092;9.182;2023-06-26T07:00:59;8.48;;;5.55;;
38851;SDS011;24605;50.092;9.182;2023-06-26T07:03:27;8.35;;;5.60;;
38851;SDS011;24605;50.092;9.182;2023-06-26T07:05:54;7.30;;;5.10;;
38851;SDS011;24605;50.092;9.182;2023-06-26T07:08:23;6.20;;;4.63;;
38851;SDS011;24605;50.092;9.182;2023-06-26T07:10:49;6.70;;;4.95;;
38851;SDS011;24605;50.092;9.182;2023-06-26T07:13:16;10.07;;;5.30;;
38851;SDS011;24605;50.092;9.182;2023-06-26T07:15:42;9.07;;;5.75;;
38851;SDS011;24605;50.092;9.182;2023-06-26T07:18:09;13.27;;;5.30;;
38851;SDS011;24605;50.092;9.182;2023-06-26T07:20:35;7.20;;;5.00;;
38851;SDS011;24605;50.092;9.182;2023-06-26T07:23:02;8.10;;;5.65;;
38851;SDS011;24605;50.092;9.182;2023-06-26T07:25:29;6.75;;;4.88;;
38851;SDS011;24605;50.092;9.182;2023-06-26T07:27:56;6.80;;;5.15;;
38851;SDS011;24605;50.092;9.182;2023-06-26T07:30:22;10.65;;;5.55;;
38851;SDS011;24605;50.092;9.182;2023-06-26T07:32:50;7.60;;;5.38;;
38851;SDS011;24605;50.092;9.182;2023-06-26T07:35:16;7.75;;;5.72;;
38851;SDS011;24605;50.092;9.182;2023-06-26T07:37:43;8.43;;;5.82;;
38851;SDS011;24605;50.092;9.182;2023-06-26T07:40:10;10.02;;;6.22;;
38851;SDS011;24605;50.092;9.182;2023-06-26T07:42:38;7.55;;;5.40;;
38851;SDS011;24605;50.092;9.182;2023-06-26T07:45:05;7.47;;;5.65;;
38851;SDS011;24605;50.092;9.182;2023-06-26T07:47:35;6.85;;;5.05;;
38851;SDS011;24605;50.092;9.182;2023-06-26T07:50:02;7.85;;;5.32;;
38851;SDS011;24605;50.092;9.182;2023-06-26T07:52:29;9.05;;;5.65;;
38851;SDS011;24605;50.092;9.182;2023-06-26T07:54:56;7.25;;;5.57;;
38851;SDS011;24605;50.092;9.182;2023-06-26T07:57:22;7.90;;;5.22;;
38851;SDS011;24605;50.092;9.182;2023-06-26T07:59:50;8.32;;;5.40;;
38851;SDS011;24605;50.092;9.182;2023-06-26T08:02:16;10.50;;;5.07;;
38851;SDS011;24605;50.092;9.182;2023-06-26T08:04:43;7.43;;;4.82;;
38851;SDS011;24605;50.092;9.182;2023-06-26T08:07:10;7.57;;;4.95;;
38851;SDS011;24605;50.092;9.182;2023-06-26T08:09:36;7.35;;;4.97;;
38851;SDS011;24605;50.092;9.182;2023-06-26T08:12:03;7.60;;;5.45;;
38851;SDS011;24605;50.092;9.182;2023-06-26T08:14:30;6.35;;;4.70;;
38851;SDS011;24605;50.092;9.182;2023-06-26T08:16:58;7.68;;;5.05;;
38851;SDS011;24605;50.092;9.182;2023-06-26T08:19:25;8.80;;;5.07;;
38851;SDS011;24605;50.092;9.182;2023-06-26T08:21:51;7.78;;;5.07;;
38851;SDS011;24605;50.092;9.182;2023-06-26T08:24:18;8.40;;;5.00;;
38851;SDS011;24605;50.092;9.182;2023-06-26T08:26:45;7.00;;;5.13;;
38851;SDS011;24605;50.092;9.182;2023-06-26T08:29:12;8.07;;;5.03;;
38851;SDS011;24605;50.092;9.182;2023-06-26T08:31:39;6.72;;;4.55;;
38851;SDS011;24605;50.092;9.182;2023-06-26T08:34:07;8.57;;;5.47;;
38851;SDS011;24605;50.092;9.182;2023-06-26T08:36:34;8.27;;;5.60;;
38851;SDS011;24605;50.092;9.182;2023-06-26T08:39:01;7.30;;;5.50;;
38851;SDS011;24605;50.092;9.182;2023-06-26T08:41:30;8.25;;;5.60;;
38851;SDS011;24605;50.092;9.182;2023-06-26T08:43:56;8.10;;;5.95;;
38851;SDS011;24605;50.092;9.182;2023-06-26T08:46:23;10.50;;;5.80;;
38851;SDS011;24605;50.092;9.182;2023-06-26T08:48:51;8.95;;;6.00;;
38851;SDS011;24605;50.092;9.182;2023-06-26T08:51:23;8.93;;;5.55;;
38851;SDS011;24605;50.092;9.182;2023-06-26T08:53:52;10.43;;;6.35;;
38851;SDS011;24605;50.092;9.182;2023-06-26T08:56:24;10.13;;;6.20;;
38851;SDS011;24605;50.092;9.182;2023-06-26T08:58:54;9.90;;;6.03;;
38851;SDS011;24605;50.092;9.182;2023-06-26T09:01:20;11.85;;;5.75;;
38851;SDS011;24605;50.092;9.182;2023-06-26T09:03:49;8.27;;;5.90;;
38851;SDS011;24605;50.092;9.182;2023-06-26T09:06:16;10.23;;;5.70;;
38851;SDS011;24605;50.092;9.182;2023-06-26T09:08:44;9.82;;;5.97;;
38851;SDS011;24605;50.092;9.182;2023-06-26T09:11:11;10.05;;;6.20;;
38851;SDS011;24605;50.092;9.182;2023-06-26T09:13:37;7.10;;;5.75;;
38851;SDS011;24605;50.092;9.182;2023-06-26T09:16:06;9.38;;;6.00;;
38851;SDS011;24605;50.092;9.182;2023-06-26T09:18:33;8.80;;;5.75;;
38851;SDS011;24605;50.092;9.182;2023-06-26T09:21:00;9.88;;;6.80;;
38851;SDS011;24605;50.092;9.182;2023-06-26T09:23:31;7.03;;;5.35;;
38851;SDS011;24605;50.092;9.182;2023-06-26T09:26:00;7.63;;;5.35;;
38851;SDS011;24605;50.092;9.182;2023-06-26T09:28:29;8.55;;;6.00;;
38851;SDS011;24605;50.092;9.182;2023-06-26T09:30:59;9.63;;;6.28;;
38851;SDS011;24605;50.092;9.182;2023-06-26T09:33:27;10.13;;;6.30;;
38851;SDS011;24605;50.092;9.182;2023-06-26T09:35:53;10.90;;;6.28;;
38851;SDS011;24605;50.092;9.182;2023-06-26T09:38:20;9.52;;;5.90;;
38851;SDS011;24605;50.092;9.182;2023-06-26T09:40:47;9.20;;;6.55;;
38851;SDS011;24605;50.092;9.182;2023-06-26T09:43:14;8.30;;;6.05;;
38851;SDS011;24605;50.092;9.182;2023-06-26T09:45:41;9.70;;;6.35;;
38851;SDS011;24605;50.092;9.182;2023-06-26T09:48:08;11.38;;;6.13;;
38851;SDS011;24605;50.092;9.182;2023-06-26T09:50:35;7.70;;;5.40;;
38851;SDS011;24605;50.092;9.182;2023-06-26T09:53:07;8.02;;;5.72;;
38851;SDS011;24605;50.092;9.182;2023-06-26T09:55:34;8.18;;;5.50;;
38851;SDS011;24605;50.092;9.182;2023-06-26T09:58:01;12.20;;;5.85;;
38851;SDS011;24605;50.092;9.182;2023-06-26T10:00:30;10.65;;;5.90;;
38851;SDS011;24605;50.092;9.182;2023-06-26T10:02:57;8.75;;;5.50;;
38851;SDS011;24605;50.092;9.182;2023-06-26T10:05:24;9.48;;;5.97;;
38851;SDS011;24605;50.092;9.182;2023-06-26T10:07:50;9.20;;;5.78;;
38851;SDS011;24605;50.092;9.182;2023-06-26T10:10:18;8.70;;;5.72;;
38851;SDS011;24605;50.092;9.182;2023-06-26T10:12:46;7.38;;;5.45;;
38851;SDS011;24605;50.092;9.182;2023-06-26T10:15:15;8.02;;;6.07;;
38851;SDS011;24605;50.092;9.182;2023-06-26T10:17:43;9.63;;;5.75;;
38851;SDS011;24605;50.092;9.182;2023-06-26T10:20:12;8.07;;;6.05;;
38851;SDS011;24605;50.092;9.182;2023-06-26T10:22:41;9.00;;;6.30;;
38851;SDS011;24605;50.092;9.182;2023-06-26T10:25:10;7.95;;;6.20;;
38851;SDS011;24605;50.092;9.182;2023-06-26T10:27:42;9.30;;;6.07;;
38851;SDS011;24605;50.092;9.182;2023-06-26T10:30:12;9.10;;;5.40;;
38851;SDS011;24605;50.092;9.182;2023-06-26T10:32:43;8.60;;;5.85;;
38851;SDS011;24605;50.092;9.182;2023-06-26T10:35:11;10.07;;;5.93;;
38851;SDS011;24605;50.092;9.182;2023-06-26T10:37:41;9.50;;;5.97;;
38851;SDS011;24605;50.092;9.182;2023-06-26T10:40:09;9.52;;;6.10;;
38851;SDS011;24605;50.092;9.182;2023-06-26T10:42:36;8.25;;;6.30;;
38851;SDS011;24605;50.092;9.182;2023-06-26T10:45:09;8.65;;;6.15;;
38851;SDS011;24605;50.092;9.182;2023-06-26T10:47:37;8.50;;;6.25;;
38851;SDS011;24605;50.092;9.182;2023-06-26T10:50:20;9.70;;;6.03;;
38851;SDS011;24605;50.092;9.182;2023-06-26T10:55:42;9.52;;;6.13;;
38851;SDS011;24605;50.092;9.182;2023-06-26T10:58:29;9.07;;;6.20;;
38851;SDS011;24605;50.092;9.182;2023-06-26T11:01:13;9.20;;;6.10;;
38851;SDS011;24605;50.092;9.182;2023-06-26T11:03:44;8.93;;;6.18;;
38851;SDS011;24605;50.092;9.182;2023-06-26T11:06:13;11.13;;;6.80;;
38851;SDS011;24605;50.092;9.182;2023-06-26T11:08:44;9.30;;;6.22;;
38851;SDS011;24605;50.092;9.182;2023-06-26T11:11:11;9.18;;;6.55;;
38851;SDS011;24605;50.092;9.182;2023-06-26T11:13:39;10.10;;;6.60;;
38851;SDS011;24605;50.092;9.182;2023-06-26T11:16:06;9.80;;;5.68;;
38851;SDS011;24605;50.092;9.182;2023-06-26T11:18:33;10.15;;;6.05;;
38851;SDS011;24605;50.092;9.182;2023-06-26T11:21:06;10.38;;;5.95;;
38851;SDS011;24605;50.092;9.182;2023-06-26T11:23:35;10.43;;;6.00;;
38851;SDS011;24605;50.092;9.182;2023-06-26T11:26:15;7.75;;;5.30;;
38851;SDS011;24605;50.092;9.182;2023-06-26T11:28:46;10.45;;;5.65;;
38851;SDS011;24605;50.092;9.182;2023-06-26T11:31:26;11.35;;;5.93;;
38851;SDS011;24605;50.092;9.182;2023-06-26T11:33:55;8.40;;;5.40;;
38851;SDS011;24605;50.092;9.182;2023-06-26T11:36:23;8.75;;;5.68;;
38851;SDS011;24605;50.092;9.182;2023-06-26T11:38:55;9.55;;;5.88;;
38851;SDS011;24605;50.092;9.182;2023-06-26T11:41:24;10.95;;;5.55;;
38851;SDS011;24605;50.092;9.182;2023-06-26T11:43:52;8.38;;;5.45;;
38851;SDS011;24605;50.092;9.182;2023-06-26T11:46:19;8.90;;;5.55;;
38851;SDS011;24605;50.092;9.182;2023-06-26T11:48:46;7.05;;;5.10;;
38851;SDS011;24605;50.092;9.182;2023-06-26T11:51:13;10.90;;;5.30;;
38851;SDS011;24605;50.092;9.182;2023-06-26T11:53:41;11.52;;;5.35;;
38851;SDS011;24605;50.092;9.182;2023-06-26T11:56:10;9.77;;;6.40;;
38851;SDS011;24605;50.092;9.182;2023-06-26T12:01:22;16.38;;;5.72;;
38851;SDS011;24605;50.092;9.182;2023-06-26T12:03:50;9.90;;;5.63;;
38851;SDS011;24605;50.092;9.182;2023-06-26T12:06:17;9.10;;;5.68;;
38851;SDS011;24605;50.092;9.182;2023-06-26T12:08:43;10.32;;;5.25;;
38851;SDS011;24605;50.092;9.182;2023-06-26T12:11:12;9.52;;;5.70;;
38851;SDS011;24605;50.092;9.182;2023-06-26T12:13:39;10.35;;;5.20;;
38851;SDS011;24605;50.092;9.182;2023-06-26T12:16:05;8.50;;;5.60;;
38851;SDS011;24605;50.092;9.182;2023-06-26T12:18:33;8.38;;;5.70;;
38851;SDS011;24605;50.092;9.182;2023-06-26T12:21:00;9.80;;;5.30;;
38851;SDS011;24605;50.092;9.182;2023-06-26T12:23:31;9.18;;;5.30;;
38851;SDS011;24605;50.092;9.182;2023-06-26T12:25:58;8.43;;;5.07;;
38851;SDS011;24605;50.092;9.182;2023-06-26T12:28:26;8.00;;;5.32;;
38851;SDS011;24605;50.092;9.182;2023-06-26T12:33:42;6.60;;;4.60;;
38851;SDS011;24605;50.092;9.182;2023-06-26T12:36:10;7.95;;;4.70;;
38851;SDS011;24605;50.092;9.182;2023-06-26T12:38:37;7.40;;;5.07;;
38851;SDS011;24605;50.092;9.182;2023-06-26T12:41:03;9.15;;;5.30;;
38851;SDS011;24605;50.092;9.182;2023-06-26T12:43:31;11.52;;;5.20;;
38851;SDS011;24605;50.092;9.182;2023-06-26T12:45:58;10.07;;;5.30;;
38851;SDS011;24605;50.092;9.182;2023-06-26T12:48:36;8.20;;;5.13;;
38851;SDS011;24605;50.092;9.182;2023-06-26T12:51:07;8.38;;;5.32;;
38851;SDS011;24605;50.092;9.182;2023-06-26T12:53:34;10.45;;;5.75;;
38851;SDS011;24605;50.092;9.182;2023-06-26T12:56:01;9.13;;;5.13;;
38851;SDS011;24605;50.092;9.182;2023-06-26T12:58:27;6.85;;;5.18;;
38851;SDS011;24605;50.092;9.182;2023-06-26T13:00:55;12.00;;;5.15;;
38851;SDS011;24605;50.092;9.182;2023-06-26T13:03:23;8.80;;;5.10;;
38851;SDS011;24605;50.092;9.182;2023-06-26T13:05:49;8.48;;;5.30;;
38851;SDS011;24605;50.092;9.182;2023-06-26T13:08:16;8.32;;;4.90;;
38851;SDS011;24605;50.092;9.182;2023-06-26T13:10:43;8.88;;;5.38;;
38851;SDS011;24605;50.092;9.182;2023-06-26T13:13:10;7.72;;;4.90;;
38851;SDS011;24605;50.092;9.182;2023-06-26T13:15:37;9.05;;;5.07;;
38851;SDS011;24605;50.092;9.182;2023-06-26T13:18:05;11.93;;;5.15;;
38851;SDS011;24605;50.092;9.182;2023-06-26T13:20:31;11.30;;;5.13;;
38851;SDS011;24605;50.092;9.182;2023-06-26T13:22:57;7.78;;;4.60;;
38851;SDS011;24605;50.092;9.182;2023-06-26T13:25:24;10.85;;;5.07;;
38851;SDS011;24605;50.092;9.182;2023-06-26T13:27:50;8.50;;;5.38;;
38851;SDS011;24605;50.092;9.182;2023-06-26T13:31:16;10.77;;;6.10;;
38851;SDS011;24605;50.092;9.182;2023-06-26T13:33:43;10.38;;;5.72;;
38851;SDS011;24605;50.092;9.182;2023-06-26T13:36:11;7.68;;;5.43;;
38851;SDS011;24605;50.092;9.182;2023-06-26T13:38:37;7.55;;;4.63;;
38851;SDS011;24605;50.092;9.182;2023-06-26T13:41:04;7.50;;;5.13;;
38851;SDS011;24605;50.092;9.182;2023-06-26T13:43:30;12.35;;;5.60;;
38851;SDS011;24605;50.092;9.182;2023-06-26T13:45:57;8.43;;;5.65;;
38851;SDS011;24605;50.092;9.182;2023-06-26T13:48:25;8.95;;;5.40;;
38851;SDS011;24605;50.092;9.182;2023-06-26T13:50:52;10.07;;;5.30;;
38851;SDS011;24605;50.092;9.182;2023-06-26T13:53:18;10.30;;;5.10;;
38851;SDS011;24605;50.092;9.182;2023-06-26T13:55:45;7.60;;;5.15;;
38851;SDS011;24605;50.092;9.182;2023-06-26T13:58:11;10.88;;;5.15;;
38851;SDS011;24605;50.092;9.182;2023-06-26T14:00:38;7.35;;;4.82;;
38851;SDS011;24605;50.092;9.182;2023-06-26T14:03:06;10.15;;;4.90;;
38851;SDS011;24605;50.092;9.182;2023-06-26T14:05:36;11.80;;;5.63;;
38851;SDS011;24605;50.092;9.182;2023-06-26T14:08:03;9.50;;;5.57;;
38851;SDS011;24605;50.092;9.182;2023-06-26T14:10:31;11.00;;;5.20;;
38851;SDS011;24605;50.092;9.182;2023-06-26T14:12:59;9.85;;;5.40;;
38851;SDS011;24605;50.092;9.182;2023-06-26T14:15:25;8.88;;;4.70;;
38851;SDS011;24605;50.092;9.182;2023-06-26T14:17:52;7.13;;;4.65;;
38851;SDS011;24605;50.092;9.182;2023-06-26T14:20:20;13.57;;;5.20;;
38851;SDS011;24605;50.092;9.182;2023-06-26T14:22:49;10.32;;;5.00;;
38851;SDS011;24605;50.092;9.182;2023-06-26T14:25:15;18.00;;;5.53;;
38851;SDS011;24605;50.092;9.182;2023-06-26T14:27:42;8.48;;;4.88;;
38851;SDS011;24605;50.092;9.182;2023-06-26T14:30:09;9.30;;;4.80;;
38851;SDS011;24605;50.092;9.182;2023-06-26T14:32:36;9.55;;;4.63;;
38851;SDS011;24605;50.092;9.182;2023-06-26T14:35:03;9.68;;;4.68;;
38851;SDS011;24605;50.092;9.182;2023-06-26T14:37:30;13.20;;;4.70;;
38851;SDS011;24605;50.092;9.182;2023-06-26T14:39:58;7.45;;;4.32;;
38851;SDS011;24605;50.092;9.182;2023-06-26T14:42:25;10.07;;;4.30;;
38851;SDS011;24605;50.092;9.182;2023-06-26T14:44:51;7.90;;;4.25;;
38851;SDS011;24605;50.092;9.182;2023-06-26T14:47:17;10.43;;;4.20;;
38851;SDS011;24605;50.092;9.182;2023-06-26T14:49:44;8.20;;;4.18;;
38851;SDS011;24605;50.092;9.182;2023-06-26T14:52:10;8.95;;;4.15;;
38851;SDS011;24605;50.092;9.182;2023-06-26T14:54:37;7.57;;;3.92;;
38851;SDS011;24605;50.092;9.182;2023-06-26T14:57:06;8.68;;;3.55;;